sensor_id;sensor_type;location;lat;lon;timestamp;P1;durP1;ratioP1;P2;durP2;ratioP2
3299;SDS011;1662;49.310;8.134;2022-11-20T00:02:24;22.63;;;14.40;;
3299;SDS011;1662;49.310;8.134;2022-11-20T00:04:50;22.87;;;13.33;;
3299;SDS011;1662;49.310;8.134;2022-11-20T00:07:16;20.33;;;14.37;;
3299;SDS011;1662;49.310;8.134;2022-11-20T00:09:41;19.00;;;12.80;;
3299;SDS011;1662;49.310;8.134;2022-11-20T00:12:07;17.73;;;12.53;;
3299;SDS011;1662;49.310;8.134;2022-11-20T00:17:12;21.27;;;15.13;;
3299;SDS011;1662;49.310;8.134;2022-11-20T00:19:37;19.23;;;14.53;;
3299;SDS011;1662;49.310;8.134;2022-11-20T00:22:03;24.13;;;14.60;;
3299;SDS011;1662;49.310;8.134;2022-11-20T00:24:28;24.80;;;15.80;;
3299;SDS011;1662;49.310;8.134;2022-11-20T00:26:56;21.35;;;13.48;;
3299;SDS011;1662;49.310;8.134;2022-11-20T00:29:22;17.87;;;13.47;;
3299;SDS011;1662;49.310;8.134;2022-11-20T00:31:47;21.77;;;14.43;;
3299;SDS011;1662;49.310;8.134;2022-11-20T00:36:50;22.35;;;15.38;;
3299;SDS011;1662;49.310;8.134;2022-11-20T00:39:15;19.70;;;14.47;;
3299;SDS011;1662;49.310;8.134;2022-11-20T00:41:41;20.63;;;13.50;;
3299;SDS011;1662;49.310;8.134;2022-11-20T00:44:06;21.67;;;14.30;;
3299;SDS011;1662;49.310;8.134;2022-11-20T00:46:32;23.97;;;14.90;;
3299;SDS011;1662;49.310;8.134;2022-11-20T00:48:57;17.97;;;13.07;;
3299;SDS011;1662;49.310;8.134;2022-11-20T00:51:24;22.10;;;13.93;;
3299;SDS011;1662;49.310;8.134;2022-11-20T00:56:18;23.52;;;15.57;;
3299;SDS011;1662;49.310;8.134;2022-11-20T00:58:44;21.55;;;14.95;;
3299;SDS011;1662;49.310;8.134;2022-11-20T01:01:12;25.30;;;15.80;;
3299;SDS011;1662;49.310;8.134;2022-11-20T01:03:41;22.40;;;13.93;;
3299;SDS011;1662;49.310;8.134;2022-11-20T01:06:41;23.23;;;15.90;;
3299;SDS011;1662;49.310;8.134;2022-11-20T01:09:03;21.77;;;14.18;;
3299;SDS011;1662;49.310;8.134;2022-11-20T01:11:37;22.30;;;14.27;;
3299;SDS011;1662;49.310;8.134;2022-11-20T01:14:30;24.15;;;15.38;;
3299;SDS011;1662;49.310;8.134;2022-11-20T01:16:56;19.60;;;13.53;;
3299;SDS011;1662;49.310;8.134;2022-11-20T01:19:22;22.80;;;14.13;;
3299;SDS011;1662;49.310;8.134;2022-11-20T01:21:49;20.02;;;14.05;;
3299;SDS011;1662;49.310;8.134;2022-11-20T01:24:19;20.90;;;14.73;;
3299;SDS011;1662;49.310;8.134;2022-11-20T01:26:47;22.48;;;14.45;;
3299;SDS011;1662;49.310;8.134;2022-11-20T01:29:14;23.55;;;14.57;;
3299;SDS011;1662;49.310;8.134;2022-11-20T01:34:12;24.00;;;15.85;;
3299;SDS011;1662;49.310;8.134;2022-11-20T01:36:41;25.98;;;16.50;;
3299;SDS011;1662;49.310;8.134;2022-11-20T01:39:10;27.48;;;15.82;;
3299;SDS011;1662;49.310;8.134;2022-11-20T01:41:47;22.75;;;15.80;;
3299;SDS011;1662;49.310;8.134;2022-11-20T01:44:45;26.33;;;15.70;;
3299;SDS011;1662;49.310;8.134;2022-11-20T01:47:16;28.85;;;16.50;;
3299;SDS011;1662;49.310;8.134;2022-11-20T01:52:29;21.15;;;13.73;;
3299;SDS011;1662;49.310;8.134;2022-11-20T01:55:03;20.02;;;13.48;;
3299;SDS011;1662;49.310;8.134;2022-11-20T01:57:34;23.40;;;14.65;;
3299;SDS011;1662;49.310;8.134;2022-11-20T02:00:05;27.13;;;16.15;;
3299;SDS011;1662;49.310;8.134;2022-11-20T02:02:34;18.70;;;12.43;;
3299;SDS011;1662;49.310;8.134;2022-11-20T02:05:04;21.80;;;14.70;;
3299;SDS011;1662;49.310;8.134;2022-11-20T02:07:42;20.60;;;13.40;;
3299;SDS011;1662;49.310;8.134;2022-11-20T02:11:37;22.73;;;14.23;;
3299;SDS011;1662;49.310;8.134;2022-11-20T02:14:03;24.30;;;15.67;;
3299;SDS011;1662;49.310;8.134;2022-11-20T02:16:30;25.07;;;15.53;;
3299;SDS011;1662;49.310;8.134;2022-11-20T02:18:59;22.48;;;14.50;;
3299;SDS011;1662;49.310;8.134;2022-11-20T02:24:29;22.70;;;14.38;;
3299;SDS011;1662;49.310;8.134;2022-11-20T02:30:09;17.58;;;12.75;;
3299;SDS011;1662;49.310;8.134;2022-11-20T02:32:36;22.67;;;15.02;;
3299;SDS011;1662;49.310;8.134;2022-11-20T02:35:09;23.73;;;13.85;;
3299;SDS011;1662;49.310;8.134;2022-11-20T02:37:59;28.50;;;16.40;;
3299;SDS011;1662;49.310;8.134;2022-11-20T02:40:27;24.73;;;13.68;;
3299;SDS011;1662;49.310;8.134;2022-11-20T02:42:53;21.57;;;14.17;;
3299;SDS011;1662;49.310;8.134;2022-11-20T02:45:20;23.25;;;14.85;;
3299;SDS011;1662;49.310;8.134;2022-11-20T02:49:18;25.67;;;15.10;;
3299;SDS011;1662;49.310;8.134;2022-11-20T02:51:43;24.80;;;14.50;;
3299;SDS011;1662;49.310;8.134;2022-11-20T02:54:09;23.90;;;15.40;;
3299;SDS011;1662;49.310;8.134;2022-11-20T02:56:37;27.90;;;16.40;;
3299;SDS011;1662;49.310;8.134;2022-11-20T02:59:05;30.73;;;17.60;;
3299;SDS011;1662;49.310;8.134;2022-11-20T03:01:31;26.50;;;16.50;;
3299;SDS011;1662;49.310;8.134;2022-11-20T03:03:56;24.10;;;16.07;;
3299;SDS011;1662;49.310;8.134;2022-11-20T03:09:34;25.67;;;16.48;;
3299;SDS011;1662;49.310;8.134;2022-11-20T03:12:00;23.67;;;14.52;;
3299;SDS011;1662;49.310;8.134;2022-11-20T03:14:26;22.43;;;14.67;;
3299;SDS011;1662;49.310;8.134;2022-11-20T03:16:51;21.10;;;13.90;;
3299;SDS011;1662;49.310;8.134;2022-11-20T03:19:17;25.37;;;15.80;;
3299;SDS011;1662;49.310;8.134;2022-11-20T03:21:43;21.40;;;14.40;;
3299;SDS011;1662;49.310;8.134;2022-11-20T03:24:08;24.60;;;15.57;;
3299;SDS011;1662;49.310;8.134;2022-11-20T03:28:46;22.42;;;14.43;;
3299;SDS011;1662;49.310;8.134;2022-11-20T03:31:22;21.23;;;14.43;;
3299;SDS011;1662;49.310;8.134;2022-11-20T03:33:49;23.23;;;14.35;;
3299;SDS011;1662;49.310;8.134;2022-11-20T03:36:16;23.75;;;14.27;;
3299;SDS011;1662;49.310;8.134;2022-11-20T03:38:45;21.70;;;14.00;;
3299;SDS011;1662;49.310;8.134;2022-11-20T03:41:12;25.55;;;15.15;;
3299;SDS011;1662;49.310;8.134;2022-11-20T03:43:40;25.67;;;15.50;;
3299;SDS011;1662;49.310;8.134;2022-11-20T03:47:39;24.35;;;14.80;;
3299;SDS011;1662;49.310;8.134;2022-11-20T03:50:04;22.70;;;14.23;;
3299;SDS011;1662;49.310;8.134;2022-11-20T03:52:30;22.67;;;14.65;;
3299;SDS011;1662;49.310;8.134;2022-11-20T03:54:56;22.33;;;14.90;;
3299;SDS011;1662;49.310;8.134;2022-11-20T03:57:22;24.87;;;15.00;;
3299;SDS011;1662;49.310;8.134;2022-11-20T03:59:47;26.43;;;16.27;;
3299;SDS011;1662;49.310;8.134;2022-11-20T04:02:13;25.63;;;16.40;;
3299;SDS011;1662;49.310;8.134;2022-11-20T04:07:06;26.50;;;15.40;;
3299;SDS011;1662;49.310;8.134;2022-11-20T04:09:31;26.20;;;15.27;;
3299;SDS011;1662;49.310;8.134;2022-11-20T04:11:57;24.77;;;15.13;;
3299;SDS011;1662;49.310;8.134;2022-11-20T04:14:23;26.90;;;17.10;;
3299;SDS011;1662;49.310;8.134;2022-11-20T04:16:48;27.00;;;16.60;;
3299;SDS011;1662;49.310;8.134;2022-11-20T04:19:14;27.83;;;16.73;;
3299;SDS011;1662;49.310;8.134;2022-11-20T04:21:41;25.40;;;15.85;;
3299;SDS011;1662;49.310;8.134;2022-11-20T04:27:02;25.08;;;15.82;;
3299;SDS011;1662;49.310;8.134;2022-11-20T04:29:27;24.00;;;15.50;;
3299;SDS011;1662;49.310;8.134;2022-11-20T04:31:53;22.63;;;15.20;;
3299;SDS011;1662;49.310;8.134;2022-11-20T04:34:18;24.90;;;15.30;;
3299;SDS011;1662;49.310;8.134;2022-11-20T04:36:46;26.10;;;15.47;;
3299;SDS011;1662;49.310;8.134;2022-11-20T04:39:13;25.27;;;15.35;;
3299;SDS011;1662;49.310;8.134;2022-11-20T04:41:40;19.95;;;13.27;;
3299;SDS011;1662;49.310;8.134;2022-11-20T04:45:49;20.00;;;12.95;;
3299;SDS011;1662;49.310;8.134;2022-11-20T04:48:16;18.63;;;12.35;;
3299;SDS011;1662;49.310;8.134;2022-11-20T04:50:42;23.13;;;12.93;;
3299;SDS011;1662;49.310;8.134;2022-11-20T04:53:07;20.60;;;12.50;;
3299;SDS011;1662;49.310;8.134;2022-11-20T04:55:33;18.23;;;12.47;;
3299;SDS011;1662;49.310;8.134;2022-11-20T04:57:58;20.07;;;12.27;;
3299;SDS011;1662;49.310;8.134;2022-11-20T05:00:24;22.53;;;13.43;;
3299;SDS011;1662;49.310;8.134;2022-11-20T05:02:52;24.02;;;14.40;;
3299;SDS011;1662;49.310;8.134;2022-11-20T05:05:19;19.98;;;12.65;;
3299;SDS011;1662;49.310;8.134;2022-11-20T05:07:45;22.40;;;14.00;;
3299;SDS011;1662;49.310;8.134;2022-11-20T05:10:13;21.63;;;14.10;;
3299;SDS011;1662;49.310;8.134;2022-11-20T05:12:42;19.60;;;13.05;;
3299;SDS011;1662;49.310;8.134;2022-11-20T05:15:07;19.10;;;13.03;;
3299;SDS011;1662;49.310;8.134;2022-11-20T05:17:33;18.60;;;12.90;;
3299;SDS011;1662;49.310;8.134;2022-11-20T05:19:59;20.40;;;13.30;;
3299;SDS011;1662;49.310;8.134;2022-11-20T05:22:24;18.43;;;12.47;;
3299;SDS011;1662;49.310;8.134;2022-11-20T05:24:52;19.52;;;12.38;;
3299;SDS011;1662;49.310;8.134;2022-11-20T05:27:18;21.80;;;11.70;;
3299;SDS011;1662;49.310;8.134;2022-11-20T05:29:43;22.17;;;13.23;;
3299;SDS011;1662;49.310;8.134;2022-11-20T05:32:11;18.00;;;12.40;;
3299;SDS011;1662;49.310;8.134;2022-11-20T05:34:37;17.42;;;12.13;;
3299;SDS011;1662;49.310;8.134;2022-11-20T05:37:02;19.33;;;13.30;;
3299;SDS011;1662;49.310;8.134;2022-11-20T05:39:28;16.60;;;12.90;;
3299;SDS011;1662;49.310;8.134;2022-11-20T05:41:54;22.40;;;13.20;;
3299;SDS011;1662;49.310;8.134;2022-11-20T05:44:38;19.33;;;13.07;;
3299;SDS011;1662;49.310;8.134;2022-11-20T05:47:03;20.27;;;13.27;;
3299;SDS011;1662;49.310;8.134;2022-11-20T05:49:30;19.00;;;12.75;;
3299;SDS011;1662;49.310;8.134;2022-11-20T05:51:55;20.70;;;13.33;;
3299;SDS011;1662;49.310;8.134;2022-11-20T05:54:21;18.73;;;13.47;;
3299;SDS011;1662;49.310;8.134;2022-11-20T05:56:46;24.60;;;14.40;;
3299;SDS011;1662;49.310;8.134;2022-11-20T05:59:12;24.13;;;14.10;;
3299;SDS011;1662;49.310;8.134;2022-11-20T06:01:38;20.73;;;13.57;;
3299;SDS011;1662;49.310;8.134;2022-11-20T06:04:03;24.57;;;15.17;;
3299;SDS011;1662;49.310;8.134;2022-11-20T06:06:29;22.90;;;14.90;;
3299;SDS011;1662;49.310;8.134;2022-11-20T06:08:59;21.48;;;14.27;;
3299;SDS011;1662;49.310;8.134;2022-11-20T06:11:25;27.45;;;17.65;;
3299;SDS011;1662;49.310;8.134;2022-11-20T06:13:50;29.00;;;17.00;;
3299;SDS011;1662;49.310;8.134;2022-11-20T06:16:17;23.83;;;15.13;;
3299;SDS011;1662;49.310;8.134;2022-11-20T06:18:43;26.27;;;15.60;;
3299;SDS011;1662;49.310;8.134;2022-11-20T06:21:14;22.42;;;13.55;;
3299;SDS011;1662;49.310;8.134;2022-11-20T06:23:42;22.85;;;14.13;;
3299;SDS011;1662;49.310;8.134;2022-11-20T06:26:17;22.80;;;14.35;;
3299;SDS011;1662;49.310;8.134;2022-11-20T06:28:47;23.35;;;15.63;;
3299;SDS011;1662;49.310;8.134;2022-11-20T06:31:17;41.35;;;15.00;;
3299;SDS011;1662;49.310;8.134;2022-11-20T06:33:45;22.52;;;14.75;;
3299;SDS011;1662;49.310;8.134;2022-11-20T06:36:14;23.58;;;16.10;;
3299;SDS011;1662;49.310;8.134;2022-11-20T06:38:41;24.40;;;15.85;;
3299;SDS011;1662;49.310;8.134;2022-11-20T06:41:12;21.45;;;13.90;;
3299;SDS011;1662;49.310;8.134;2022-11-20T06:43:39;25.52;;;15.45;;
3299;SDS011;1662;49.310;8.134;2022-11-20T06:46:05;22.13;;;13.03;;
3299;SDS011;1662;49.310;8.134;2022-11-20T06:48:31;27.80;;;16.43;;
3299;SDS011;1662;49.310;8.134;2022-11-20T06:50:56;22.73;;;15.07;;
3299;SDS011;1662;49.310;8.134;2022-11-20T06:53:22;21.52;;;14.25;;
3299;SDS011;1662;49.310;8.134;2022-11-20T06:55:49;16.50;;;12.48;;
3299;SDS011;1662;49.310;8.134;2022-11-20T06:58:15;23.90;;;13.80;;
3299;SDS011;1662;49.310;8.134;2022-11-20T07:03:30;11.38;;;9.85;;
3299;SDS011;1662;49.310;8.134;2022-11-20T07:05:57;6.40;;;5.63;;
3299;SDS011;1662;49.310;8.134;2022-11-20T07:08:25;10.75;;;9.65;;
3299;SDS011;1662;49.310;8.134;2022-11-20T07:10:51;13.20;;;10.80;;
3299;SDS011;1662;49.310;8.134;2022-11-20T07:13:16;9.93;;;8.20;;
3299;SDS011;1662;49.310;8.134;2022-11-20T07:15:44;5.80;;;5.25;;
3299;SDS011;1662;49.310;8.134;2022-11-20T07:18:10;3.50;;;3.30;;
3299;SDS011;1662;49.310;8.134;2022-11-20T07:22:54;2.90;;;2.70;;
3299;SDS011;1662;49.310;8.134;2022-11-20T07:25:21;1.90;;;1.80;;
3299;SDS011;1662;49.310;8.134;2022-11-20T07:27:48;2.60;;;2.50;;
3299;SDS011;1662;49.310;8.134;2022-11-20T07:30:14;2.37;;;2.27;;
3299;SDS011;1662;49.310;8.134;2022-11-20T07:32:40;3.17;;;2.97;;
3299;SDS011;1662;49.310;8.134;2022-11-20T07:35:06;3.70;;;3.50;;
3299;SDS011;1662;49.310;8.134;2022-11-20T07:37:35;2.50;;;2.40;;
3299;SDS011;1662;49.310;8.134;2022-11-20T07:42:35;5.70;;;5.30;;
3299;SDS011;1662;49.310;8.134;2022-11-20T07:45:01;3.00;;;2.80;;
3299;SDS011;1662;49.310;8.134;2022-11-20T07:47:26;1.00;;;1.00;;
3299;SDS011;1662;49.310;8.134;2022-11-20T07:49:52;2.37;;;2.27;;
3299;SDS011;1662;49.310;8.134;2022-11-20T07:52:18;2.50;;;2.30;;
3299;SDS011;1662;49.310;8.134;2022-11-20T07:54:45;1.63;;;1.60;;
3299;SDS011;1662;49.310;8.134;2022-11-20T07:57:11;2.13;;;2.03;;
3299;SDS011;1662;49.310;8.134;2022-11-20T08:01:34;1.90;;;1.80;;
3299;SDS011;1662;49.310;8.134;2022-11-20T08:04:00;3.03;;;2.83;;
3299;SDS011;1662;49.310;8.134;2022-11-20T08:06:25;3.07;;;2.77;;
3299;SDS011;1662;49.310;8.134;2022-11-20T08:08:51;4.40;;;3.60;;
3299;SDS011;1662;49.310;8.134;2022-11-20T08:11:16;3.53;;;3.33;;
3299;SDS011;1662;49.310;8.134;2022-11-20T08:14:00;2.83;;;2.73;;
3299;SDS011;1662;49.310;8.134;2022-11-20T08:16:42;2.90;;;2.80;;
3299;SDS011;1662;49.310;8.134;2022-11-20T08:21:02;3.13;;;2.93;;
3299;SDS011;1662;49.310;8.134;2022-11-20T08:23:28;4.40;;;4.00;;
3299;SDS011;1662;49.310;8.134;2022-11-20T08:25:54;4.30;;;3.90;;
3299;SDS011;1662;49.310;8.134;2022-11-20T08:28:19;3.40;;;3.20;;
3299;SDS011;1662;49.310;8.134;2022-11-20T08:30:45;4.03;;;3.63;;
3299;SDS011;1662;49.310;8.134;2022-11-20T08:33:11;5.07;;;4.67;;
3299;SDS011;1662;49.310;8.134;2022-11-20T08:35:39;4.80;;;4.47;;
3299;SDS011;1662;49.310;8.134;2022-11-20T08:40:14;6.03;;;5.63;;
3299;SDS011;1662;49.310;8.134;2022-11-20T08:42:46;10.00;;;6.43;;
3299;SDS011;1662;49.310;8.134;2022-11-20T08:45:12;6.70;;;5.33;;
3299;SDS011;1662;49.310;8.134;2022-11-20T08:47:41;7.40;;;6.83;;
3299;SDS011;1662;49.310;8.134;2022-11-20T08:50:08;6.77;;;6.17;;
3299;SDS011;1662;49.310;8.134;2022-11-20T08:52:35;6.30;;;5.70;;
3299;SDS011;1662;49.310;8.134;2022-11-20T08:55:03;6.30;;;5.80;;
3299;SDS011;1662;49.310;8.134;2022-11-20T08:59:12;6.23;;;5.63;;
3299;SDS011;1662;49.310;8.134;2022-11-20T09:01:37;5.50;;;5.10;;
3299;SDS011;1662;49.310;8.134;2022-11-20T09:04:04;5.40;;;4.97;;
3299;SDS011;1662;49.310;8.134;2022-11-20T09:06:29;6.07;;;5.47;;
3299;SDS011;1662;49.310;8.134;2022-11-20T09:08:55;5.80;;;5.20;;
3299;SDS011;1662;49.310;8.134;2022-11-20T09:11:23;6.77;;;6.27;;
3299;SDS011;1662;49.310;8.134;2022-11-20T09:13:48;6.97;;;6.07;;
3299;SDS011;1662;49.310;8.134;2022-11-20T09:18:23;5.60;;;5.10;;
3299;SDS011;1662;49.310;8.134;2022-11-20T09:20:49;6.20;;;5.33;;
3299;SDS011;1662;49.310;8.134;2022-11-20T09:23:15;5.40;;;5.00;;
3299;SDS011;1662;49.310;8.134;2022-11-20T09:25:41;7.50;;;5.73;;
3299;SDS011;1662;49.310;8.134;2022-11-20T09:28:09;4.93;;;4.57;;
3299;SDS011;1662;49.310;8.134;2022-11-20T09:30:34;5.27;;;4.80;;
3299;SDS011;1662;49.310;8.134;2022-11-20T09:33:00;10.97;;;5.20;;
3299;SDS011;1662;49.310;8.134;2022-11-20T09:36:49;5.63;;;5.20;;
3299;SDS011;1662;49.310;8.134;2022-11-20T09:39:14;5.73;;;5.07;;
3299;SDS011;1662;49.310;8.134;2022-11-20T09:55:18;4.47;;;4.07;;
3299;SDS011;1662;49.310;8.134;2022-11-20T09:58:45;3.77;;;3.57;;
3299;SDS011;1662;49.310;8.134;2022-11-20T10:01:16;4.03;;;3.73;;
3299;SDS011;1662;49.310;8.134;2022-11-20T10:06:20;4.27;;;3.87;;
3299;SDS011;1662;49.310;8.134;2022-11-20T10:08:55;3.50;;;3.30;;
3299;SDS011;1662;49.310;8.134;2022-11-20T10:16:43;4.83;;;4.43;;
3299;SDS011;1662;49.310;8.134;2022-11-20T10:30:16;2.77;;;2.57;;
3299;SDS011;1662;49.310;8.134;2022-11-20T10:38:00;3.73;;;3.43;;
3299;SDS011;1662;49.310;8.134;2022-11-20T10:40:34;3.83;;;3.53;;
3299;SDS011;1662;49.310;8.134;2022-11-20T10:43:13;6.87;;;3.83;;
3299;SDS011;1662;49.310;8.134;2022-11-20T10:48:28;3.63;;;3.33;;
3299;SDS011;1662;49.310;8.134;2022-11-20T11:08:11;8.67;;;3.17;;
3299;SDS011;1662;49.310;8.134;2022-11-20T11:10:59;3.53;;;3.23;;
3299;SDS011;1662;49.310;8.134;2022-11-20T11:14:27;7.50;;;3.47;;
3299;SDS011;1662;49.310;8.134;2022-11-20T11:16:53;3.10;;;2.77;;
3299;SDS011;1662;49.310;8.134;2022-11-20T11:19:21;3.73;;;3.43;;
3299;SDS011;1662;49.310;8.134;2022-11-20T11:21:47;3.40;;;3.10;;
3299;SDS011;1662;49.310;8.134;2022-11-20T11:24:25;3.67;;;3.37;;
3299;SDS011;1662;49.310;8.134;2022-11-20T11:29:22;4.47;;;2.90;;
3299;SDS011;1662;49.310;8.134;2022-11-20T11:35:52;3.97;;;3.13;;
3299;SDS011;1662;49.310;8.134;2022-11-20T11:38:43;3.43;;;3.13;;
3299;SDS011;1662;49.310;8.134;2022-11-20T11:41:09;6.00;;;3.40;;
3299;SDS011;1662;49.310;8.134;2022-11-20T11:43:40;3.73;;;2.80;;
3299;SDS011;1662;49.310;8.134;2022-11-20T11:46:35;4.20;;;2.80;;
3299;SDS011;1662;49.310;8.134;2022-11-20T11:49:20;5.77;;;3.23;;
3299;SDS011;1662;49.310;8.134;2022-11-20T11:55:37;4.80;;;2.90;;
3299;SDS011;1662;49.310;8.134;2022-11-20T11:58:09;3.00;;;2.77;;
3299;SDS011;1662;49.310;8.134;2022-11-20T12:03:36;5.73;;;2.90;;
3299;SDS011;1662;49.310;8.134;2022-11-20T12:06:11;2.27;;;2.17;;
3299;SDS011;1662;49.310;8.134;2022-11-20T12:10:58;7.07;;;3.90;;
3299;SDS011;1662;49.310;8.134;2022-11-20T12:14:11;7.13;;;3.63;;
3299;SDS011;1662;49.310;8.134;2022-11-20T12:16:42;3.77;;;3.13;;
3299;SDS011;1662;49.310;8.134;2022-11-20T12:19:08;4.10;;;3.50;;
3299;SDS011;1662;49.310;8.134;2022-11-20T12:38:19;6.00;;;3.60;;
3299;SDS011;1662;49.310;8.134;2022-11-20T13:05:15;2.63;;;2.43;;
3299;SDS011;1662;49.310;8.134;2022-11-20T13:07:43;5.50;;;3.60;;
3299;SDS011;1662;49.310;8.134;2022-11-20T13:10:13;4.47;;;3.07;;
3299;SDS011;1662;49.310;8.134;2022-11-20T13:12:54;4.67;;;2.47;;
3299;SDS011;1662;49.310;8.134;2022-11-20T13:18:13;5.23;;;2.33;;
3299;SDS011;1662;49.310;8.134;2022-11-20T13:23:23;2.83;;;2.63;;
3299;SDS011;1662;49.310;8.134;2022-11-20T13:26:02;2.40;;;1.90;;
3299;SDS011;1662;49.310;8.134;2022-11-20T13:28:42;3.10;;;2.80;;
3299;SDS011;1662;49.310;8.134;2022-11-20T13:31:23;2.30;;;2.10;;
3299;SDS011;1662;49.310;8.134;2022-11-20T13:33:58;2.30;;;2.20;;
3299;SDS011;1662;49.310;8.134;2022-11-20T13:36:27;2.70;;;2.60;;
3299;SDS011;1662;49.310;8.134;2022-11-20T13:41:00;7.17;;;2.00;;
3299;SDS011;1662;49.310;8.134;2022-11-20T13:43:49;5.57;;;1.97;;
3299;SDS011;1662;49.310;8.134;2022-11-20T13:46:16;1.83;;;1.73;;
3299;SDS011;1662;49.310;8.134;2022-11-20T13:48:49;6.50;;;4.47;;
3299;SDS011;1662;49.310;8.134;2022-11-20T14:01:11;4.40;;;2.27;;
3299;SDS011;1662;49.310;8.134;2022-11-20T14:03:44;2.10;;;2.00;;
3299;SDS011;1662;49.310;8.134;2022-11-20T14:06:14;4.23;;;2.73;;
3299;SDS011;1662;49.310;8.134;2022-11-20T14:08:48;3.43;;;2.93;;
3299;SDS011;1662;49.310;8.134;2022-11-20T14:15:57;8.23;;;4.00;;
3299;SDS011;1662;49.310;8.134;2022-11-20T14:18:25;5.03;;;4.50;;
3299;SDS011;1662;49.310;8.134;2022-11-20T14:20:52;5.73;;;5.00;;
3299;SDS011;1662;49.310;8.134;2022-11-20T14:23:27;6.10;;;5.50;;
3299;SDS011;1662;49.310;8.134;2022-11-20T14:25:54;6.63;;;3.70;;
3299;SDS011;1662;49.310;8.134;2022-11-20T14:28:23;6.20;;;3.13;;
3299;SDS011;1662;49.310;8.134;2022-11-20T14:33:26;3.80;;;2.83;;
3299;SDS011;1662;49.310;8.134;2022-11-20T14:35:53;4.37;;;3.33;;
3299;SDS011;1662;49.310;8.134;2022-11-20T14:38:22;6.93;;;4.20;;
3299;SDS011;1662;49.310;8.134;2022-11-20T14:40:51;2.77;;;2.57;;
3299;SDS011;1662;49.310;8.134;2022-11-20T14:43:24;2.53;;;2.43;;
3299;SDS011;1662;49.310;8.134;2022-11-20T14:46:05;2.63;;;2.40;;
3299;SDS011;1662;49.310;8.134;2022-11-20T14:51:39;2.23;;;2.13;;
3299;SDS011;1662;49.310;8.134;2022-11-20T14:56:53;2.60;;;2.40;;
3299;SDS011;1662;49.310;8.134;2022-11-20T14:59:23;3.47;;;2.33;;
3299;SDS011;1662;49.310;8.134;2022-11-20T15:01:58;3.33;;;3.00;;
3299;SDS011;1662;49.310;8.134;2022-11-20T15:04:33;5.20;;;3.20;;
3299;SDS011;1662;49.310;8.134;2022-11-20T15:09:20;4.00;;;2.73;;
3299;SDS011;1662;49.310;8.134;2022-11-20T15:11:59;6.97;;;5.77;;
3299;SDS011;1662;49.310;8.134;2022-11-20T15:14:27;2.77;;;2.57;;
3299;SDS011;1662;49.310;8.134;2022-11-20T15:17:00;3.57;;;3.47;;
3299;SDS011;1662;49.310;8.134;2022-11-20T15:19:25;4.50;;;4.07;;
3299;SDS011;1662;49.310;8.134;2022-11-20T15:21:52;4.50;;;4.30;;
3299;SDS011;1662;49.310;8.134;2022-11-20T15:26:34;5.97;;;4.87;;
3299;SDS011;1662;49.310;8.134;2022-11-20T15:29:00;4.63;;;4.33;;
3299;SDS011;1662;49.310;8.134;2022-11-20T15:31:25;4.60;;;4.37;;
3299;SDS011;1662;49.310;8.134;2022-11-20T15:33:51;4.70;;;4.40;;
3299;SDS011;1662;49.310;8.134;2022-11-20T15:36:17;2.90;;;2.80;;
3299;SDS011;1662;49.310;8.134;2022-11-20T15:38:42;4.47;;;4.10;;
3299;SDS011;1662;49.310;8.134;2022-11-20T15:41:08;3.80;;;3.50;;
3299;SDS011;1662;49.310;8.134;2022-11-20T15:46:15;5.80;;;3.80;;
3299;SDS011;1662;49.310;8.134;2022-11-20T15:48:45;4.43;;;3.40;;
3299;SDS011;1662;49.310;8.134;2022-11-20T15:51:33;3.87;;;2.93;;
3299;SDS011;1662;49.310;8.134;2022-11-20T15:54:00;3.93;;;3.20;;
3299;SDS011;1662;49.310;8.134;2022-11-20T15:56:30;5.20;;;4.73;;
3299;SDS011;1662;49.310;8.134;2022-11-20T15:58:58;6.47;;;3.90;;
3299;SDS011;1662;49.310;8.134;2022-11-20T16:02:56;7.27;;;6.67;;
3299;SDS011;1662;49.310;8.134;2022-11-20T16:05:21;11.77;;;10.57;;
3299;SDS011;1662;49.310;8.134;2022-11-20T16:07:48;6.87;;;6.30;;
3299;SDS011;1662;49.310;8.134;2022-11-20T16:10:15;6.07;;;4.60;;
3299;SDS011;1662;49.310;8.134;2022-11-20T16:12:41;5.83;;;5.33;;
3299;SDS011;1662;49.310;8.134;2022-11-20T16:15:25;7.40;;;4.30;;
3299;SDS011;1662;49.310;8.134;2022-11-20T16:20:22;10.07;;;4.30;;
3299;SDS011;1662;49.310;8.134;2022-11-20T16:22:47;5.23;;;3.43;;
3299;SDS011;1662;49.310;8.134;2022-11-20T16:25:15;6.57;;;4.40;;
3299;SDS011;1662;49.310;8.134;2022-11-20T16:27:41;3.77;;;2.90;;
3299;SDS011;1662;49.310;8.134;2022-11-20T16:30:09;6.10;;;2.83;;
3299;SDS011;1662;49.310;8.134;2022-11-20T16:32:35;8.30;;;4.20;;
3299;SDS011;1662;49.310;8.134;2022-11-20T16:35:00;9.70;;;6.77;;
3299;SDS011;1662;49.310;8.134;2022-11-20T16:38:03;6.77;;;4.40;;
3299;SDS011;1662;49.310;8.134;2022-11-20T16:40:31;9.30;;;6.03;;
3299;SDS011;1662;49.310;8.134;2022-11-20T16:43:10;4.20;;;3.20;;
3299;SDS011;1662;49.310;8.134;2022-11-20T16:45:42;3.43;;;3.23;;
3299;SDS011;1662;49.310;8.134;2022-11-20T16:48:12;3.70;;;3.40;;
3299;SDS011;1662;49.310;8.134;2022-11-20T16:50:50;5.20;;;4.50;;
3299;SDS011;1662;49.310;8.134;2022-11-20T16:55:15;4.80;;;3.73;;
3299;SDS011;1662;49.310;8.134;2022-11-20T16:57:41;5.30;;;4.60;;
3299;SDS011;1662;49.310;8.134;2022-11-20T17:00:07;4.90;;;4.50;;
3299;SDS011;1662;49.310;8.134;2022-11-20T17:02:33;4.13;;;3.90;;
3299;SDS011;1662;49.310;8.134;2022-11-20T17:05:02;4.80;;;4.20;;
3299;SDS011;1662;49.310;8.134;2022-11-20T17:07:27;5.27;;;4.27;;
3299;SDS011;1662;49.310;8.134;2022-11-20T17:09:53;4.43;;;3.97;;
3299;SDS011;1662;49.310;8.134;2022-11-20T17:13:40;5.53;;;5.00;;
3299;SDS011;1662;49.310;8.134;2022-11-20T17:16:07;9.13;;;6.57;;
3299;SDS011;1662;49.310;8.134;2022-11-20T17:18:37;8.17;;;6.60;;
3299;SDS011;1662;49.310;8.134;2022-11-20T17:21:05;6.40;;;4.40;;
3299;SDS011;1662;49.310;8.134;2022-11-20T17:23:32;7.93;;;4.13;;
3299;SDS011;1662;49.310;8.134;2022-11-20T17:26:09;5.37;;;4.97;;
3299;SDS011;1662;49.310;8.134;2022-11-20T17:28:38;8.33;;;7.40;;
3299;SDS011;1662;49.310;8.134;2022-11-20T17:33:07;7.20;;;6.37;;
3299;SDS011;1662;49.310;8.134;2022-11-20T17:35:34;8.03;;;6.00;;
3299;SDS011;1662;49.310;8.134;2022-11-20T17:38:00;7.97;;;6.37;;
3299;SDS011;1662;49.310;8.134;2022-11-20T17:40:26;8.40;;;7.30;;
3299;SDS011;1662;49.310;8.134;2022-11-20T17:42:54;10.03;;;6.23;;
3299;SDS011;1662;49.310;8.134;2022-11-20T17:45:19;10.63;;;6.10;;
3299;SDS011;1662;49.310;8.134;2022-11-20T17:50:36;8.53;;;5.20;;
3299;SDS011;1662;49.310;8.134;2022-11-20T17:53:02;10.70;;;7.10;;
3299;SDS011;1662;49.310;8.134;2022-11-20T17:55:27;9.13;;;5.77;;
3299;SDS011;1662;49.310;8.134;2022-11-20T17:58:13;5.53;;;5.03;;
3299;SDS011;1662;49.310;8.134;2022-11-20T18:00:39;9.43;;;8.43;;
3299;SDS011;1662;49.310;8.134;2022-11-20T18:03:04;11.30;;;7.23;;
3299;SDS011;1662;49.310;8.134;2022-11-20T18:08:05;4.23;;;3.93;;
3299;SDS011;1662;49.310;8.134;2022-11-20T18:10:31;5.73;;;5.20;;
3299;SDS011;1662;49.310;8.134;2022-11-20T18:12:59;3.93;;;3.63;;
3299;SDS011;1662;49.310;8.134;2022-11-20T18:15:24;3.73;;;3.40;;
3299;SDS011;1662;49.310;8.134;2022-11-20T18:17:50;4.00;;;3.67;;
3299;SDS011;1662;49.310;8.134;2022-11-20T18:20:16;4.03;;;3.70;;
3299;SDS011;1662;49.310;8.134;2022-11-20T18:22:42;3.37;;;3.17;;
3299;SDS011;1662;49.310;8.134;2022-11-20T18:25:11;3.73;;;3.63;;
3299;SDS011;1662;49.310;8.134;2022-11-20T18:28:46;5.40;;;5.10;;
3299;SDS011;1662;49.310;8.134;2022-11-20T18:31:12;6.50;;;5.97;;
3299;SDS011;1662;49.310;8.134;2022-11-20T18:33:38;7.73;;;3.53;;
3299;SDS011;1662;49.310;8.134;2022-11-20T18:36:07;2.27;;;2.17;;
3299;SDS011;1662;49.310;8.134;2022-11-20T18:38:44;3.37;;;2.67;;
3299;SDS011;1662;49.310;8.134;2022-11-20T18:41:14;2.70;;;2.60;;
3299;SDS011;1662;49.310;8.134;2022-11-20T18:45:40;3.73;;;3.43;;
3299;SDS011;1662;49.310;8.134;2022-11-20T18:48:08;2.80;;;2.70;;
3299;SDS011;1662;49.310;8.134;2022-11-20T18:50:33;3.40;;;3.10;;
3299;SDS011;1662;49.310;8.134;2022-11-20T18:52:59;4.80;;;4.50;;
3299;SDS011;1662;49.310;8.134;2022-11-20T18:55:27;6.70;;;6.30;;
3299;SDS011;1662;49.310;8.134;2022-11-20T18:57:52;2.47;;;2.37;;
3299;SDS011;1662;49.310;8.134;2022-11-20T19:00:19;3.03;;;2.83;;